Time;durP1;ratioP1;P1;durP2;ratioP2;P2;SDS_P1;SDS_P2;PMS_P1;PMS_P2;Temp;Humidity;BMP_temperature;BMP_pressure;BME280_temperature;BME280_humidity;BME280_pressure;Samples;Min_cycle;Max_cycle;Signal;HPM_P1;HPM_P2
2022/06/26 00:00:28;;;;;;;1.60;1.50;;;;;;;17.43;80.36;101107.81;5093556;28;20016;-82
2022/06/26 00:02:53;;;;;;;1.90;1.80;;;;;;;17.42;80.23;101109.59;5093847;28;20487;-82
2022/06/26 00:05:18;;;;;;;1.83;1.73;;;;;;;17.41;80.55;101113.13;5094492;28;20058;-82
2022/06/26 00:07:44;;;;;;;1.80;1.70;;;;;;;17.43;80.45;101118.31;5093234;28;20024;-82
2022/06/26 00:10:09;;;;;;;1.77;1.67;;;;;;;17.42;80.40;101119.22;5094553;28;20039;-82
2022/06/26 00:12:34;;;;;;;1.43;1.37;;;;;;;17.42;80.54;101116.59;5094591;28;20121;-82
2022/06/26 00:15:00;;;;;;;1.70;1.60;;;;;;;17.41;80.91;101118.38;5093231;28;20020;-82
2022/06/26 00:17:26;;;;;;;1.90;1.80;;;;;;;17.39;80.63;101124.59;5094377;28;20024;-82
2022/06/26 00:19:53;;;;;;;1.80;1.70;;;;;;;17.36;80.50;101115.06;5093271;28;20024;-82
2022/06/26 00:22:18;;;;;;;1.70;1.60;;;;;;;17.35;80.56;101136.13;5094052;28;20444;-83
2022/06/26 00:24:43;;;;;;;1.60;1.50;;;;;;;17.35;80.65;101129.09;5093177;28;20063;-82
2022/06/26 00:27:09;;;;;;;1.80;1.70;;;;;;;17.36;80.74;101135.22;5093475;28;20055;-82
2022/06/26 00:29:35;;;;;;;1.80;1.70;;;;;;;17.34;80.76;101131.78;5094166;28;20384;-82
2022/06/26 00:32:02;;;;;;;1.60;1.50;;;;;;;17.31;80.94;101138.00;5093236;28;20095;-82
2022/06/26 00:34:28;;;;;;;1.50;1.40;;;;;;;17.28;81.04;101141.59;5093216;28;20032;-82
2022/06/26 00:36:53;;;;;;;1.80;1.70;;;;;;;17.26;80.99;101142.56;5093469;28;20065;-82
2022/06/26 00:39:19;;;;;;;1.73;1.63;;;;;;;17.24;81.04;101144.38;5093782;28;20369;-82
2022/06/26 00:41:44;;;;;;;2.10;1.73;;;;;;;17.26;80.90;101150.44;5092710;28;20050;-82
2022/06/26 00:44:18;;;;;;;2.00;1.90;;;;;;;17.26;80.91;101153.06;5093722;28;20073;-82
2022/06/26 00:46:44;;;;;;;1.92;1.83;;;;;;;17.26;81.10;101150.44;5093378;28;20057;-82
2022/06/26 00:49:10;;;;;;;2.17;2.08;;;;;;;17.24;81.09;101154.88;5092030;28;20024;-82
2022/06/26 00:51:43;;;;;;;2.47;2.28;;;;;;;17.19;81.28;101157.69;5092920;28;20020;-82
2022/06/26 00:54:08;;;;;;;2.08;1.98;;;;;;;17.19;81.03;101162.09;5093228;28;20047;-82
2022/06/26 00:56:35;;;;;;;2.03;1.93;;;;;;;17.17;81.27;101169.16;5092678;28;20035;-82
2022/06/26 00:59:01;;;;;;;1.90;1.80;;;;;;;17.12;81.77;101175.41;5092922;28;20028;-82
2022/06/26 01:01:26;;;;;;;1.90;1.80;;;;;;;17.10;82.16;101174.66;5093304;28;20039;-82
2022/06/26 01:03:51;;;;;;;2.73;2.43;;;;;;;17.08;82.93;101172.97;5092197;28;20103;-82
2022/06/26 01:06:17;;;;;;;2.10;2.00;;;;;;;17.03;82.87;101174.91;5093573;28;20533;-83
2022/06/26 01:08:43;;;;;;;2.20;1.85;;;;;;;17.03;83.15;101174.91;5093288;28;20493;-82
2022/06/26 01:11:17;;;;;;;2.00;1.90;;;;;;;17.01;82.70;101169.72;5092836;28;20020;-82
2022/06/26 01:13:47;;;;;;;1.90;1.80;;;;;;;17.00;83.64;101175.88;5093172;28;20046;-82
2022/06/26 01:16:17;;;;;;;1.70;1.60;;;;;;;16.98;82.86;101175.94;5092522;28;20494;-82
2022/06/26 01:18:44;;;;;;;1.70;1.60;;;;;;;17.00;82.78;101180.28;5072907;28;20051;-82
2022/06/26 01:21:10;;;;;;;;;;;;;;;17.00;82.84;101183.72;5087001;28;20528;-82
2022/06/26 01:23:35;;;;;;;1.80;1.70;;;;;;;16.99;83.04;101184.69;5093174;28;19994;-82
2022/06/26 01:26:00;;;;;;;2.20;2.00;;;;;;;16.97;83.56;101184.72;5091741;28;20020;-82
2022/06/26 01:28:25;;;;;;;4.43;2.97;;;;;;;16.95;84.56;101189.16;5093160;28;20376;-82
2022/06/26 01:30:51;;;;;;;2.30;2.10;;;;;;;16.96;84.12;101190.88;5091965;28;20024;-82
2022/06/26 01:33:17;;;;;;;4.17;2.90;;;;;;;16.95;85.57;101193.56;5093317;28;20156;-82
2022/06/26 01:35:42;;;;;;;4.80;3.00;;;;;;;16.89;86.01;101197.22;5092844;28;20035;-82
2022/06/26 01:38:15;;;;;;;6.37;4.30;;;;;;;16.82;86.79;101193.97;5092378;28;20020;-82
2022/06/26 01:40:41;;;;;;;5.18;3.75;;;;;;;16.79;85.42;101193.22;5092132;28;20404;-82
2022/06/26 01:43:08;;;;;;;5.63;4.03;;;;;;;16.77;86.15;101195.03;5093206;28;20020;-82
2022/06/26 01:45:33;;;;;;;4.43;3.15;;;;;;;16.75;85.00;101187.25;5091429;28;20036;-82
2022/06/26 01:47:58;;;;;;;3.13;2.77;;;;;;;16.77;85.42;101188.03;5091789;28;20472;-83
2022/06/26 01:50:24;;;;;;;5.20;3.83;;;;;;;16.75;88.61;101192.47;5092990;28;20465;-82
2022/06/26 01:52:50;;;;;;;5.37;4.00;;;;;;;16.72;86.48;101189.97;5091753;28;20143;-83
2022/06/26 01:55:15;;;;;;;4.60;3.40;;;;;;;16.70;85.82;101185.69;5093120;28;20035;-82
2022/06/26 01:57:40;;;;;;;5.93;4.30;;;;;;;16.67;87.32;101186.63;5093402;28;20277;-82
2022/06/26 02:00:06;;;;;;;5.37;3.70;;;;;;;16.64;86.72;101189.38;5092972;28;20028;-82
2022/06/26 02:02:33;;;;;;;5.55;3.63;;;;;;;16.60;86.39;101183.41;5092919;28;20392;-82
2022/06/26 02:04:59;;;;;;;4.20;3.47;;;;;;;16.58;85.56;101181.72;5092736;28;20044;-82
2022/06/26 02:07:24;;;;;;;4.45;3.63;;;;;;;16.54;86.61;101173.13;5091673;28;20048;-82
2022/06/26 02:15:17;;;;;;;4.88;3.13;;;;;;;16.51;86.09;101178.47;5092938;28;20139;-82
2022/06/26 02:17:43;;;;;;;6.30;4.00;;;;;;;16.47;87.03;101162.00;5091731;28;20099;-82
2022/06/26 02:20:09;;;;;;;7.23;4.53;;;;;;;16.45;87.52;101163.81;5091763;28;20058;-82
2022/06/26 02:22:34;;;;;;;4.45;3.50;;;;;;;16.41;86.91;101156.97;5092397;28;20066;-82
2022/06/26 02:25:00;;;;;;;4.07;3.00;;;;;;;16.39;86.31;101155.31;5092241;28;20020;-82
2022/06/26 02:27:26;;;;;;;3.17;2.80;;;;;;;16.40;86.00;101163.13;5091488;28;20132;-82
2022/06/26 02:29:51;;;;;;;7.17;4.33;;;;;;;16.41;87.32;101163.97;5092320;28;20594;-82
2022/06/26 02:32:16;;;;;;;6.00;3.70;;;;;;;16.39;86.16;101158.78;5092566;28;20036;-82
2022/06/26 02:34:42;;;;;;;3.73;3.00;;;;;;;16.40;85.71;101167.50;5091382;28;20411;-82
2022/06/26 02:37:07;;;;;;;3.10;2.60;;;;;;;16.40;85.88;101165.75;5092344;28;20118;-82
2022/06/26 02:39:32;;;;;;;2.60;2.40;;;;;;;16.42;86.05;101173.53;5092347;28;20044;-82
2022/06/26 02:41:57;;;;;;;2.43;2.20;;;;;;;16.40;85.74;101181.47;5090182;28;20058;-82
2022/06/26 02:44:23;;;;;;;4.03;3.00;;;;;;;16.39;86.07;101195.47;5092001;28;20024;-82
2022/06/26 02:46:48;;;;;;;4.73;3.30;;;;;;;16.36;87.07;101196.44;5092201;28;20440;-82
2022/06/26 02:49:13;;;;;;;4.60;3.53;;;;;;;16.32;86.87;101204.44;5091016;28;20020;-82
2022/06/26 02:51:38;;;;;;;3.80;3.10;;;;;;;16.27;85.82;101195.88;5092063;28;20451;-82
2022/06/26 02:54:04;;;;;;;5.37;3.60;;;;;;;16.28;87.77;101210.69;5094940;28;20539;-82
2022/06/26 02:56:29;;;;;;;3.70;3.13;;;;;;;16.23;85.85;101207.34;5093871;28;20031;-82
2022/06/26 02:58:55;;;;;;;2.90;2.60;;;;;;;16.19;85.53;101207.47;5095751;28;20035;-82
2022/06/26 03:01:20;;;;;;;2.60;2.40;;;;;;;16.19;85.24;101214.47;5095603;28;20036;-82
2022/06/26 03:03:46;;;;;;;3.00;2.60;;;;;;;16.20;84.93;101221.41;5094766;28;20057;-82
2022/06/26 03:06:11;;;;;;;3.73;2.73;;;;;;;16.19;84.03;101215.34;5095725;28;20047;-82
2022/06/26 03:08:36;;;;;;;2.73;2.50;;;;;;;16.14;85.03;101222.47;5094687;28;20028;-82
2022/06/26 03:11:02;;;;;;;4.40;3.30;;;;;;;16.06;85.94;101214.84;5095557;28;20149;-82
2022/06/26 03:13:27;;;;;;;3.00;2.70;;;;;;;16.03;85.26;101214.97;5095029;28;20103;-82
2022/06/26 03:15:52;;;;;;;4.97;3.53;;;;;;;15.98;86.69;101216.03;5094652;28;20464;-82
2022/06/26 03:18:18;;;;;;;3.77;2.93;;;;;;;15.92;86.20;101226.69;5095481;28;20423;-83
2022/06/26 03:20:44;;;;;;;4.00;2.90;;;;;;;15.86;86.05;101232.97;5095040;28;20087;-82
2022/06/26 03:23:09;;;;;;;2.75;2.47;;;;;;;15.83;85.66;101233.03;5094842;28;20024;-82
2022/06/26 03:25:34;;;;;;;5.93;3.70;;;;;;;15.75;86.36;101234.13;5095508;28;20387;-82
2022/06/26 03:28:00;;;;;;;4.00;3.20;;;;;;;15.71;85.28;101239.50;5094758;28;20536;-82
2022/06/26 03:30:25;;;;;;;4.20;2.90;;;;;;;15.68;85.11;101240.47;5073782;28;20055;-82
2022/06/26 03:32:51;;;;;;;3.30;2.70;;;;;;;15.67;84.80;101238.75;5074472;28;20107;-82
2022/06/26 03:35:16;;;;;;;4.37;3.17;;;;;;;15.62;87.03;101239.78;5075011;28;20116;-82
2022/06/26 03:37:42;;;;;;;4.63;2.88;;;;;;;15.57;85.56;101240.78;5073600;28;20091;-81
2022/06/26 03:40:08;;;;;;;5.17;3.30;;;;;;;15.51;86.00;101256.66;5078004;28;20077;-82
2022/06/26 03:42:33;;;;;;;4.25;2.70;;;;;;;15.49;85.22;101270.66;5094558;28;20028;-81
2022/06/26 03:44:58;;;;;;;3.40;2.80;;;;;;;15.44;85.61;101266.44;5094184;28;20035;-81
2022/06/26 03:47:24;;;;;;;2.77;2.33;;;;;;;15.42;85.24;101277.84;5094704;28;20019;-82
2022/06/26 03:49:53;;;;;;;2.73;2.40;;;;;;;15.41;85.66;101274.38;5094488;28;20068;-81
2022/06/26 03:52:20;;;;;;;3.05;2.35;;;;;;;15.39;85.84;101278.78;5093523;28;20079;-81
2022/06/26 03:54:46;;;;;;;3.40;2.78;;;;;;;15.33;85.97;101270.25;5094344;28;20109;-81
2022/06/26 03:57:11;;;;;;;4.57;2.80;;;;;;;15.31;86.41;101274.69;5094883;28;20032;-82
2022/06/26 03:59:36;;;;;;;4.70;3.17;;;;;;;15.27;86.60;101280.00;5093577;28;20498;-81
2022/06/26 04:02:02;;;;;;;3.60;2.63;;;;;;;15.26;86.51;101280.91;5094298;28;20145;-82
2022/06/26 04:04:28;;;;;;;3.40;2.60;;;;;;;15.26;86.19;101277.41;5093674;28;20472;-81
2022/06/26 04:06:53;;;;;;;3.30;2.60;;;;;;;15.25;86.19;101276.56;5092888;28;20027;-82
2022/06/26 04:09:19;;;;;;;3.00;2.40;;;;;;;15.24;86.27;101264.38;5093761;28;20442;-82
2022/06/26 04:11:44;;;;;;;2.07;1.97;;;;;;;15.25;85.70;101263.50;5094287;28;20026;-82
2022/06/26 04:14:10;;;;;;;2.63;2.10;;;;;;;15.25;85.72;101267.88;5093514;28;20028;-82
2022/06/26 04:16:35;;;;;;;1.90;1.80;;;;;;;15.26;85.39;101266.94;5094459;28;20077;-82
2022/06/26 04:19:00;;;;;;;2.20;2.00;;;;;;;15.29;85.60;101272.09;5093462;28;20119;-81
2022/06/26 04:21:26;;;;;;;2.47;2.27;;;;;;;15.27;86.13;101279.13;5094288;28;20024;-82
2022/06/26 04:23:54;;;;;;;1.90;1.80;;;;;;;15.27;86.23;101277.38;5093959;28;20028;-82
2022/06/26 04:26:19;;;;;;;2.20;2.00;;;;;;;15.27;87.47;101280.00;5093639;28;20032;-82
2022/06/26 04:28:45;;;;;;;2.57;2.00;;;;;;;15.27;85.84;101282.63;5096947;28;20109;-82
2022/06/26 04:31:10;;;;;;;2.70;2.27;;;;;;;15.29;86.81;101291.28;5095950;28;20479;-82
2022/06/26 04:33:36;;;;;;;2.40;2.20;;;;;;;15.32;85.74;101297.28;5093511;28;20020;-82
2022/06/26 04:36:01;;;;;;;2.00;1.90;;;;;;;15.32;85.79;101306.00;5093993;28;20058;-82
2022/06/26 04:38:26;;;;;;;3.13;2.40;;;;;;;15.32;85.99;101310.38;5093880;28;20111;-82
2022/06/26 04:40:51;;;;;;;4.30;2.50;;;;;;;15.29;87.02;101312.19;5092646;28;20418;-82
2022/06/26 04:43:17;;;;;;;4.60;2.90;;;;;;;15.25;86.86;101315.78;5094066;28;20031;-82
2022/06/26 04:45:42;;;;;;;2.73;2.27;;;;;;;15.23;86.30;101311.50;5093651;28;20033;-82
2022/06/26 04:48:07;;;;;;;3.13;2.40;;;;;;;15.27;86.81;101318.34;5093089;28;20031;-82
2022/06/26 04:50:33;;;;;;;1.97;1.87;;;;;;;15.29;85.66;101332.25;5093692;28;20028;-82
2022/06/26 04:52:58;;;;;;;2.73;2.10;;;;;;;15.33;86.83;101327.78;5093161;28;20044;-82
2022/06/26 04:55:23;;;;;;;3.03;2.37;;;;;;;15.35;87.70;101339.94;5092864;28;20042;-82
2022/06/26 04:57:49;;;;;;;2.23;2.10;;;;;;;15.37;86.63;101335.50;5092339;28;20392;-83
2022/06/26 05:00:15;;;;;;;3.87;2.60;;;;;;;15.43;86.49;101334.47;5093759;28;20074;-82
2022/06/26 05:02:41;;;;;;;2.90;2.42;;;;;;;15.46;86.18;101325.69;5091777;28;20119;-82
2022/06/26 05:05:06;;;;;;;2.20;2.00;;;;;;;15.52;86.23;101331.63;5093522;28;20099;-82
2022/06/26 05:07:32;;;;;;;2.77;2.23;;;;;;;15.58;88.09;101336.66;5093336;28;20395;-82
2022/06/26 05:09:58;;;;;;;2.90;2.20;;;;;;;15.64;86.18;101337.41;5092432;28;20436;-82
2022/06/26 05:12:24;;;;;;;4.23;2.50;;;;;;;15.70;87.06;101338.09;5093514;28;20336;-82
2022/06/26 05:14:49;;;;;;;3.73;2.43;;;;;;;15.72;87.78;101335.41;5092901;28;20434;-82
2022/06/26 05:17:14;;;;;;;3.33;2.70;;;;;;;15.73;85.90;101339.75;5092305;28;20032;-82
2022/06/26 05:19:40;;;;;;;7.07;3.53;;;;;;;15.72;86.71;101340.66;5092943;28;20028;-82
2022/06/26 05:22:05;;;;;;;4.47;3.13;;;;;;;15.72;87.43;101340.66;5093174;28;20482;-82
2022/06/26 05:24:30;;;;;;;4.57;2.70;;;;;;;15.75;87.10;101341.41;5092389;28;20035;-82
2022/06/26 05:26:57;;;;;;;4.90;3.13;;;;;;;15.79;87.48;101343.94;5091723;28;20100;-81
2022/06/26 05:29:23;;;;;;;6.22;3.15;;;;;;;15.76;86.34;101339.66;5091571;28;20024;-82
2022/06/26 05:31:49;;;;;;;4.53;2.70;;;;;;;15.78;85.74;101337.84;5092846;28;20164;-82
2022/06/26 05:34:14;;;;;;;3.15;2.50;;;;;;;15.83;86.46;101325.50;5092505;28;20115;-81
2022/06/26 05:36:40;;;;;;;3.57;2.47;;;;;;;15.87;86.16;101329.78;5091902;28;20107;-82
2022/06/26 05:39:05;;;;;;;3.67;2.47;;;;;;;15.94;86.62;101329.56;5093091;28;20368;-82
2022/06/26 05:41:30;;;;;;;4.60;2.63;;;;;;;16.01;87.05;101341.56;5092584;28;20035;-82
2022/06/26 05:43:57;;;;;;;3.60;2.33;;;;;;;16.08;86.97;101343.13;5092012;28;20028;-83
2022/06/26 05:46:22;;;;;;;6.40;3.05;;;;;;;16.14;86.36;101353.38;5092838;28;20016;-82
2022/06/26 05:48:47;;;;;;;3.53;2.60;;;;;;;16.17;85.79;101361.16;5092483;28;20035;-82
2022/06/26 05:51:13;;;;;;;4.23;2.70;;;;;;;16.15;86.65;101367.34;5092043;28;20107;-85
2022/06/26 05:53:38;;;;;;;3.47;2.33;;;;;;;16.16;86.21;101369.03;5090611;28;20689;-83
2022/06/26 05:56:04;;;;;;;4.40;2.40;;;;;;;16.21;86.49;101375.84;5091494;28;20491;-83
2022/06/26 05:58:29;;;;;;;3.38;2.40;;;;;;;16.29;85.63;101390.50;5091823;28;20023;-81
2022/06/26 06:00:55;;;;;;;4.27;2.70;;;;;;;16.40;86.42;101396.25;5092303;28;20039;-81
2022/06/26 06:03:20;;;;;;;7.57;3.70;;;;;;;16.48;86.87;101389.00;5092838;28;20023;-81
2022/06/26 06:05:45;;;;;;;5.53;3.43;;;;;;;16.70;84.97;101384.88;5091599;28;20024;-81
2022/06/26 06:08:14;;;;;;;4.70;2.97;;;;;;;17.41;86.55;101377.25;5092730;28;20099;-81
2022/06/26 06:10:39;;;;;;;6.68;3.63;;;;;;;18.93;85.33;101393.38;5092560;28;20029;-81
2022/06/26 06:13:05;;;;;;;5.73;3.40;;;;;;;20.75;79.84;101396.66;5091951;28;20028;-81
2022/06/26 06:15:30;;;;;;;6.33;3.43;;;;;;;21.40;75.60;101395.16;5092784;28;20028;-82
2022/06/26 06:17:55;;;;;;;6.23;3.27;;;;;;;21.67;73.29;101387.59;5092322;28;20455;-81
2022/06/26 06:20:24;;;;;;;4.50;2.80;;;;;;;21.57;72.53;101383.69;5090569;28;20059;-81
2022/06/26 06:22:53;;;;;;;3.67;2.40;;;;;;;21.26;72.55;101387.97;5090269;28;20071;-81
2022/06/26 06:25:20;;;;;;;3.42;2.30;;;;;;;20.98;70.04;101387.59;5092566;28;20024;-81
2022/06/26 06:27:45;;;;;;;;;;;;;;;20.74;73.14;101383.50;5094457;28;20031;-81
2022/06/26 06:30:12;;;;;;;3.90;2.40;;;;;;;20.47;73.40;101384.78;5096568;28;19911;-81
2022/06/26 06:32:40;;;;;;;4.25;2.63;;;;;;;20.09;71.71;101381.34;5094775;28;20023;-81
2022/06/26 06:35:06;;;;;;;4.38;2.80;;;;;;;19.69;74.04;101387.47;5096404;28;20099;-81
2022/06/26 06:37:32;;;;;;;2.60;2.20;;;;;;;19.48;75.36;101388.44;5096317;28;20036;-81
2022/06/26 06:39:57;;;;;;;3.47;2.50;;;;;;;19.28;75.16;101400.69;5095347;28;20024;-82
2022/06/26 06:42:22;;;;;;;5.07;3.00;;;;;;;19.11;75.05;101404.91;5096247;28;20060;-82
2022/06/26 06:44:48;;;;;;;5.90;2.80;;;;;;;19.00;75.81;101398.38;5095665;28;20099;-81
2022/06/26 06:47:13;;;;;;;3.40;2.40;;;;;;;18.98;76.21;101407.19;5095353;28;20047;-82
2022/06/26 06:49:39;;;;;;;3.70;2.30;;;;;;;18.96;76.47;101419.56;5095803;28;20035;-82
2022/06/26 06:52:05;;;;;;;4.50;2.40;;;;;;;18.83;76.43;101432.31;5095452;28;20461;-82
2022/06/26 06:54:30;;;;;;;3.83;2.60;;;;;;;18.71;76.27;101431.94;5094798;28;20047;-82
2022/06/26 06:56:56;;;;;;;4.47;2.53;;;;;;;18.63;77.01;101438.38;5095945;28;20031;-82
2022/06/26 06:59:21;;;;;;;4.37;2.33;;;;;;;18.62;77.49;101447.19;5096352;28;20031;-82
2022/06/26 07:01:47;;;;;;;2.57;2.03;;;;;;;18.65;77.75;101454.94;5095485;28;20522;-84
2022/06/26 07:04:12;;;;;;;3.23;2.30;;;;;;;18.66;77.80;101459.31;5095787;28;20411;-84
2022/06/26 07:06:38;;;;;;;3.97;2.17;;;;;;;18.66;77.61;101469.81;5094627;28;20028;-84
2022/06/26 07:09:03;;;;;;;2.50;2.00;;;;;;;18.70;77.49;101470.53;5094667;28;20020;-84
2022/06/26 07:11:29;;;;;;;3.23;2.30;;;;;;;18.67;77.22;101476.78;5095917;28;20473;-84
2022/06/26 07:13:55;;;;;;;3.70;2.20;;;;;;;18.68;77.59;101472.38;5095181;28;20461;-84
2022/06/26 07:16:20;;;;;;;4.70;2.97;;;;;;;18.85;77.98;101476.13;5092064;28;20335;-84
2022/06/26 07:18:45;;;;;;;6.37;3.47;;;;;;;18.91;75.11;101482.00;5093787;28;20127;-84
2022/06/26 07:21:11;;;;;;;6.20;3.60;;;;;;;18.88;76.29;101482.09;5092807;28;20028;-84
2022/06/26 07:23:37;;;;;;;8.27;3.60;;;;;;;18.87;75.83;101475.13;5092888;28;20024;-84
2022/06/26 07:26:03;;;;;;;6.03;3.57;;;;;;;18.91;76.18;101466.22;5095659;28;20270;-82
2022/06/26 07:28:28;;;;;;;5.85;3.17;;;;;;;18.94;76.76;101473.16;5095725;28;20119;-82
2022/06/26 07:30:53;;;;;;;4.13;2.90;;;;;;;19.05;76.83;101468.31;5094213;28;20095;-82
2022/06/26 07:36:05;;;;;;;3.88;2.67;;;;;;;19.24;74.84;101480.69;5094666;28;20039;-82
2022/06/26 07:38:31;;;;;;;2.97;2.45;;;;;;;19.25;76.50;101485.03;5094349;28;20021;-82
2022/06/26 07:40:57;;;;;;;2.10;1.90;;;;;;;19.31;76.41;101490.03;5094643;28;20189;-82
2022/06/26 07:43:22;;;;;;;5.47;3.28;;;;;;;19.15;74.95;101484.53;5094347;28;20032;-84
2022/06/26 07:45:49;;;;;;;4.00;2.80;;;;;;;18.96;75.25;101480.03;5094610;28;20024;-82
2022/06/26 07:48:14;;;;;;;3.00;2.40;;;;;;;18.93;75.95;101488.06;5092729;28;20046;-82
2022/06/26 07:50:40;;;;;;;3.80;3.00;;;;;;;18.91;74.87;101479.34;5092931;28;20085;-83
2022/06/26 07:53:05;;;;;;;3.03;2.40;;;;;;;18.93;75.87;101488.06;5094812;28;20047;-82
2022/06/26 07:55:30;;;;;;;2.37;2.17;;;;;;;19.00;75.62;101487.81;5095024;28;20048;-82
2022/06/26 07:57:56;;;;;;;3.40;2.33;;;;;;;18.98;75.51;101482.59;5093864;28;20161;-83
2022/06/26 08:00:21;;;;;;;2.97;2.07;;;;;;;19.03;76.07;101483.28;5094827;28;20023;-83
2022/06/26 08:02:46;;;;;;;2.73;2.10;;;;;;;19.08;75.11;101493.63;5094199;28;20031;-83
2022/06/26 08:05:12;;;;;;;2.67;2.30;;;;;;;19.08;74.87;101504.13;5093773;28;20028;-82
2022/06/26 08:07:37;;;;;;;3.43;2.70;;;;;;;18.90;73.15;101497.81;5094171;28;20024;-83
2022/06/26 08:10:03;;;;;;;3.17;2.60;;;;;;;18.80;74.83;101507.84;5094581;28;20024;-83
2022/06/26 08:12:29;;;;;;;3.45;2.60;;;;;;;18.79;74.65;101508.78;5093564;28;20050;-83
2022/06/26 08:14:54;;;;;;;2.30;2.10;;;;;;;18.81;75.95;101506.91;5094212;28;20032;-83
2022/06/26 08:17:19;;;;;;;3.57;2.80;;;;;;;18.81;75.49;101507.78;5091759;28;20060;-83
2022/06/26 08:19:44;;;;;;;3.30;2.30;;;;;;;18.85;75.09;101505.03;5092520;28;20028;-82
2022/06/26 08:22:10;;;;;;;3.27;2.57;;;;;;;18.85;74.96;101510.31;5094040;28;20062;-83
2022/06/26 08:24:36;;;;;;;3.23;2.40;;;;;;;18.80;75.43;101513.97;5093722;28;20111;-83
2022/06/26 08:27:01;;;;;;;2.42;2.22;;;;;;;18.80;75.57;101515.75;5093195;28;20038;-82
2022/06/26 08:29:27;;;;;;;3.13;2.50;;;;;;;18.77;75.26;101521.13;5094045;28;20376;-83
2022/06/26 08:31:53;;;;;;;2.30;2.10;;;;;;;18.74;74.78;101511.59;5093661;28;20294;-82
2022/06/26 08:34:18;;;;;;;2.57;2.20;;;;;;;18.74;75.83;101510.72;5092491;28;20279;-83
2022/06/26 08:36:44;;;;;;;2.03;1.92;;;;;;;18.77;76.12;101502.72;5092053;28;20024;-82
2022/06/26 08:39:09;;;;;;;1.93;1.77;;;;;;;18.80;75.53;101502.59;5093228;28;20020;-83
2022/06/26 08:41:40;;;;;;;1.90;1.80;;;;;;;18.80;75.54;101503.44;5093942;28;20427;-82
2022/06/26 08:44:07;;;;;;;1.77;1.67;;;;;;;18.82;74.76;101506.00;5093635;28;20032;-83
2022/06/26 08:46:37;;;;;;;1.80;1.70;;;;;;;18.80;74.61;101511.34;5071506;28;20061;-82
2022/06/26 08:49:10;;;;;;;1.50;1.40;;;;;;;18.80;75.17;101526.28;5073646;28;20028;-83
2022/06/26 08:51:40;;;;;;;1.20;1.20;;;;;;;18.83;75.64;101520.88;5072305;28;21359;-81
2022/06/26 08:54:06;;;;;;;1.50;1.40;;;;;;;18.86;75.41;101519.91;5087082;28;20044;-81
2022/06/26 08:56:33;;;;;;;1.55;1.45;;;;;;;18.86;75.36;101514.66;5090380;28;20028;-83
2022/06/26 08:59:02;;;;;;;1.70;1.60;;;;;;;18.88;75.10;101526.81;5084281;28;20116;-83
2022/06/26 09:01:30;;;;;;;1.65;1.55;;;;;;;18.88;75.08;101523.31;5089098;28;20103;-82
2022/06/26 09:03:56;;;;;;;3.50;2.30;;;;;;;18.76;73.75;101524.66;5079977;28;20039;-83
2022/06/26 09:06:21;;;;;;;2.20;2.00;;;;;;;18.70;75.11;101511.72;5093367;28;20476;-83
2022/06/26 09:08:50;;;;;;;2.60;2.40;;;;;;;18.68;74.06;101523.19;5091898;28;20056;-82
2022/06/26 09:11:17;;;;;;;3.85;2.60;;;;;;;18.67;75.00;101528.50;5092279;28;20052;-82
2022/06/26 09:13:44;;;;;;;2.45;2.20;;;;;;;18.72;74.63;101528.31;5085384;28;20052;-83
2022/06/26 09:16:11;;;;;;;2.00;1.90;;;;;;;18.77;75.28;101527.22;5072815;28;20024;-81
2022/06/26 09:18:37;;;;;;;;;;;;;;;18.85;75.30;101521.66;5085601;28;20036;-82
2022/06/26 09:21:07;;;;;;;1.60;1.50;;;;;;;18.88;74.20;101520.69;5092486;28;20455;-82
2022/06/26 09:23:34;;;;;;;1.48;1.40;;;;;;;18.86;74.09;101530.44;5075318;28;20016;-83
2022/06/26 09:26:00;;;;;;;2.00;1.90;;;;;;;18.82;73.09;101519.16;5085216;28;20024;-83
2022/06/26 09:28:26;;;;;;;1.90;1.80;;;;;;;18.85;75.02;101516.41;5092269;28;20487;-84
2022/06/26 09:31:02;;;;;;;1.77;1.63;;;;;;;18.90;74.34;101521.47;5091989;28;20564;-83
2022/06/26 09:33:35;;;;;;;1.58;1.48;;;;;;;18.95;74.35;101530.94;5089278;28;20028;-84
2022/06/26 09:36:03;;;;;;;2.38;1.50;;;;;;;19.02;74.77;101535.97;5080804;28;20069;-83
2022/06/26 09:38:32;;;;;;;1.20;1.20;;;;;;;19.08;74.67;101535.72;5092426;28;20038;-83
2022/06/26 09:40:59;;;;;;;1.60;1.50;;;;;;;19.10;74.08;101539.13;5092115;28;20032;-83
2022/06/26 09:43:45;;;;;;;1.75;1.63;;;;;;;19.11;73.64;101520.66;5091231;28;20059;-83
2022/06/26 09:46:14;;;;;;;1.70;1.60;;;;;;;19.13;73.74;101523.25;5078552;28;20566;-83
2022/06/26 09:48:41;;;;;;;1.45;1.35;;;;;;;19.20;74.33;101534.34;5078411;28;20025;-83
2022/06/26 09:51:09;;;;;;;1.33;1.23;;;;;;;19.25;73.78;101535.88;5089918;28;20061;-84
2022/06/26 09:53:35;;;;;;;1.77;1.50;;;;;;;19.34;73.71;101533.81;5092098;28;20055;-83
2022/06/26 09:56:00;;;;;;;1.60;1.50;;;;;;;19.34;73.75;101529.38;5091880;28;20027;-84
2022/06/26 09:58:27;;;;;;;1.70;1.60;;;;;;;19.35;72.95;101539.00;5079845;28;20468;-82
2022/06/26 10:06:28;;;;;;;1.50;1.40;;;;;;;19.47;73.11;101555.19;5092699;28;20074;-82
2022/06/26 10:08:59;;;;;;;1.20;1.20;;;;;;;19.56;72.95;101552.19;5095138;28;20016;-83
2022/06/26 10:11:29;;;;;;;2.10;1.90;;;;;;;19.60;71.26;101551.13;5088879;28;20494;-85
2022/06/26 10:14:17;;;;;;;2.25;1.85;;;;;;;19.58;71.13;101555.59;5095821;28;20035;-83
2022/06/26 10:17:04;;;;;;;2.13;1.67;;;;;;;19.58;69.64;101558.25;5089754;28;20434;-83
2022/06/26 10:19:54;;;;;;;2.38;1.80;;;;;;;19.59;70.20;101566.06;5094450;28;20028;-83
2022/06/26 10:22:20;;;;;;;2.20;2.00;;;;;;;19.52;69.79;101569.88;5095519;28;20038;-84
2022/06/26 10:24:50;;;;;;;2.77;1.70;;;;;;;19.53;71.12;101574.22;5095044;28;20476;-83
2022/06/26 10:27:15;;;;;;;1.83;1.73;;;;;;;19.58;68.56;101569.66;5088138;28;20017;-82
2022/06/26 10:29:40;;;;;;;1.73;1.63;;;;;;;19.57;69.56;101564.41;5087121;28;20152;-84
2022/06/26 10:32:09;;;;;;;1.70;1.60;;;;;;;19.58;69.62;101556.47;5080118;28;20025;-83
2022/06/26 10:34:35;;;;;;;1.85;1.70;;;;;;;19.63;69.95;101561.53;5085733;28;20024;-84
2022/06/26 10:37:05;;;;;;;1.80;1.70;;;;;;;19.69;70.08;101563.06;5090591;28;20372;-82
2022/06/26 10:39:40;;;;;;;2.45;2.00;;;;;;;19.67;68.62;101563.13;5087610;28;20138;-83
2022/06/26 10:45:02;;;;;;;2.00;1.90;;;;;;;19.73;69.93;101564.63;5075481;28;20050;-84
2022/06/26 10:47:48;;;;;;;1.90;1.80;;;;;;;19.79;69.40;101569.66;5083087;28;20487;-84
2022/06/26 10:50:41;;;;;;;1.90;1.80;;;;;;;19.84;69.66;101572.09;5085368;28;20017;-86
2022/06/26 10:53:28;;;;;;;2.13;2.03;;;;;;;20.00;69.28;101564.41;5079543;28;20041;-81
2022/06/26 10:55:54;;;;;;;3.60;2.10;;;;;;;20.17;68.54;101564.50;5093095;28;20040;-81
2022/06/26 10:58:22;;;;;;;2.27;2.00;;;;;;;20.31;68.53;101565.69;5087171;28;20028;-81
2022/06/26 11:00:49;;;;;;;2.72;2.20;;;;;;;20.41;64.96;101566.13;5093937;28;20059;-81
2022/06/26 11:03:15;;;;;;;4.43;2.58;;;;;;;20.46;66.46;101565.00;5095113;28;20024;-82
2022/06/26 11:05:53;;;;;;;4.50;2.60;;;;;;;20.46;66.66;101569.41;5095415;28;20058;-84
2022/06/26 11:08:23;;;;;;;4.22;2.38;;;;;;;20.50;66.24;101571.81;5095001;28;20050;-83
2022/06/26 11:10:48;;;;;;;3.13;2.30;;;;;;;20.55;65.63;101568.13;5095230;28;20111;-83
2022/06/26 11:13:14;;;;;;;2.30;2.10;;;;;;;20.62;66.85;101556.34;5094686;28;20438;-83
2022/06/26 11:15:39;;;;;;;2.60;2.23;;;;;;;20.68;66.78;101556.94;5093751;28;20031;-83
2022/06/26 11:18:06;;;;;;;1.90;1.80;;;;;;;20.78;67.23;101557.41;5095410;28;20400;-84
2022/06/26 11:20:57;;;;;;;;;;;;;;;20.86;66.54;101545.63;5095854;28;20036;-83
2022/06/26 11:23:28;;;;;;;4.10;2.20;;;;;;;20.78;65.63;101552.13;5093149;28;19912;-84
2022/06/26 11:25:58;;;;;;;3.05;2.35;;;;;;;20.78;65.35;101544.22;5095197;28;20020;-84
2022/06/26 11:28:32;;;;;;;2.28;1.88;;;;;;;20.86;64.11;101540.34;5075216;28;20058;-83
2022/06/26 11:30:59;;;;;;;2.10;1.90;;;;;;;20.88;65.99;101539.38;5090766;28;20101;-83
2022/06/26 11:33:26;;;;;;;;;;;;;;;20.94;65.92;101544.34;5095883;28;20024;-83
2022/06/26 11:35:53;;;;;;;2.33;1.83;;;;;;;21.02;66.42;101529.91;5093763;28;19916;-82
2022/06/26 11:38:19;;;;;;;1.73;1.63;;;;;;;21.06;65.89;101528.84;5085427;28;20028;-81
2022/06/26 11:40:46;;;;;;;2.47;2.00;;;;;;;20.99;65.96;101530.91;5085286;28;20027;-81